createdAt,value
2022-09-11T00:01:13.338Z,98.31
2022-09-11T00:03:40.902Z,98.84
2022-09-11T00:06:10.689Z,98.80
2022-09-11T00:08:39.731Z,97.65
2022-09-11T00:11:09.346Z,97.51
2022-09-11T00:13:38.081Z,97.24
2022-09-11T00:16:07.267Z,98.50
2022-09-11T00:18:38.213Z,98.21
2022-09-11T00:21:07.985Z,97.68
2022-09-11T00:23:34.577Z,97.44
2022-09-11T00:26:02.861Z,97.07
2022-09-11T00:28:30.349Z,96.90
2022-09-11T00:31:05.338Z,97.23
2022-09-11T00:33:33.466Z,96.96
2022-09-11T00:36:03.899Z,97.36
2022-09-11T00:38:32.210Z,96.69
2022-09-11T00:41:00.920Z,96.77
2022-09-11T00:43:29.836Z,96.32
2022-09-11T00:46:03.401Z,96.16
2022-09-11T00:48:36.391Z,95.92
2022-09-11T00:51:04.737Z,96.02
2022-09-11T00:53:36.045Z,97.35
2022-09-11T00:56:08.259Z,96.55
2022-09-11T00:58:39.339Z,97.80
2022-09-11T01:01:06.250Z,98.28
2022-09-11T01:03:33.020Z,98.33
2022-09-11T01:06:00.197Z,98.59
2022-09-11T01:08:27.680Z,97.59
2022-09-11T01:11:40.465Z,98.34
2022-09-11T01:14:35.024Z,97.79
2022-09-11T01:17:55.318Z,97.06
2022-09-11T01:20:50.375Z,97.87
2022-09-11T01:23:40.200Z,97.66
2022-09-11T01:26:57.706Z,97.66
2022-09-11T01:30:00.802Z,97.88
2022-09-11T01:32:57.101Z,96.23
2022-09-11T01:35:41.608Z,97.44
2022-09-11T01:41:31.011Z,98.20
2022-09-11T01:44:07.145Z,98.93
2022-09-11T01:46:42.330Z,98.47
2022-09-11T01:49:20.811Z,98.00
2022-09-11T01:51:52.491Z,98.46
2022-09-11T01:54:25.556Z,99.27
2022-09-11T01:56:56.968Z,99.80
2022-09-11T01:59:31.530Z,99.76
2022-09-11T02:02:03.672Z,99.51
2022-09-11T02:04:37.415Z,100.00
2022-09-11T02:07:19.331Z,99.48
2022-09-11T02:09:56.403Z,98.83
2022-09-11T02:12:28.650Z,99.99
2022-09-11T02:14:55.925Z,100.00
2022-09-11T02:17:52.566Z,100.00
2022-09-11T02:20:21.009Z,99.71
2022-09-11T02:22:49.045Z,99.26
2022-09-11T02:25:16.049Z,99.26
2022-09-11T02:27:43.163Z,99.25
2022-09-11T02:30:10.730Z,99.53
2022-09-11T02:32:39.820Z,99.14
2022-09-11T02:35:07.250Z,100.00
2022-09-11T02:38:06.173Z,99.45
2022-09-11T02:41:10.041Z,99.24
2022-09-11T02:43:46.758Z,98.80
2022-09-11T02:46:45.752Z,98.98
2022-09-11T02:49:54.897Z,98.52
2022-09-11T02:52:58.442Z,98.93
2022-09-11T02:55:49.726Z,99.03
2022-09-11T02:58:43.905Z,99.63
2022-09-11T03:01:11.883Z,100.00
2022-09-11T03:03:45.962Z,99.92
2022-09-11T03:06:19.279Z,100.00
2022-09-11T03:08:46.029Z,100.00
2022-09-11T03:11:15.311Z,100.00
2022-09-11T03:13:42.141Z,99.97
2022-09-11T03:16:08.967Z,100.00
2022-09-11T03:18:35.695Z,100.00
2022-09-11T03:21:03.742Z,100.00
2022-09-11T03:23:30.992Z,99.79
2022-09-11T03:25:58.668Z,100.00
2022-09-11T03:28:25.410Z,99.26
2022-09-11T03:30:53.054Z,98.61
2022-09-11T03:33:19.632Z,99.67
2022-09-11T03:35:47.213Z,99.27
2022-09-11T03:38:13.869Z,99.13
2022-09-11T03:40:42.709Z,98.74
2022-09-11T03:43:09.538Z,98.91
2022-09-11T03:45:36.167Z,97.80
2022-09-11T03:48:02.922Z,98.18
2022-09-11T03:50:29.505Z,98.23
2022-09-11T03:52:56.357Z,97.94
2022-09-11T03:55:23.879Z,98.74
2022-09-11T03:57:50.516Z,97.25
2022-09-11T04:00:17.459Z,97.31
2022-09-11T04:02:43.987Z,97.84
2022-09-11T04:05:10.745Z,97.22
2022-09-11T04:07:38.177Z,97.75
2022-09-11T04:10:05.320Z,97.47
2022-09-11T04:12:32.154Z,97.85
2022-09-11T04:14:58.718Z,97.63
2022-09-11T04:17:25.317Z,98.27
2022-09-11T04:19:51.874Z,97.76
2022-09-11T04:22:18.355Z,99.41
2022-09-11T04:24:45.172Z,99.33
2022-09-11T04:27:12.943Z,99.27
2022-09-11T04:29:39.683Z,99.00
2022-09-11T04:32:06.304Z,98.79
2022-09-11T04:34:32.882Z,99.81
2022-09-11T04:36:59.660Z,99.96
2022-09-11T04:39:26.181Z,99.55
2022-09-11T04:41:52.916Z,99.23
2022-09-11T04:44:20.780Z,99.76
2022-09-11T04:46:47.725Z,99.75
2022-09-11T04:49:14.894Z,99.58
2022-09-11T04:51:41.931Z,99.39
2022-09-11T04:54:12.479Z,99.26
2022-09-11T04:56:39.114Z,99.06
2022-09-11T04:59:16.060Z,99.05
2022-09-11T05:01:44.169Z,99.45
2022-09-11T05:04:12.851Z,98.21
2022-09-11T05:06:39.678Z,98.10
2022-09-11T05:09:08.530Z,98.58
2022-09-11T05:11:35.640Z,98.66
2022-09-11T05:14:03.025Z,97.04
2022-09-11T05:16:30.961Z,97.95
2022-09-11T05:18:58.848Z,97.96
2022-09-11T05:21:26.807Z,97.88
2022-09-11T05:23:56.402Z,97.31
2022-09-11T05:26:28.413Z,98.87
2022-09-11T05:29:00.049Z,98.70
2022-09-11T05:31:28.885Z,99.04
2022-09-11T05:33:56.419Z,99.47
2022-09-11T05:36:23.842Z,98.91
2022-09-11T05:38:50.743Z,99.71
2022-09-11T05:41:17.467Z,99.93
2022-09-11T05:43:44.375Z,99.62
2022-09-11T05:46:15.445Z,98.68
2022-09-11T05:48:43.284Z,98.82
2022-09-11T05:51:13.063Z,98.26
2022-09-11T05:53:40.845Z,97.19
2022-09-11T05:56:19.221Z,97.37
2022-09-11T05:58:47.195Z,96.24
2022-09-11T06:01:16.568Z,97.60
2022-09-11T06:03:44.032Z,97.17
2022-09-11T06:06:12.577Z,96.96
2022-09-11T06:08:42.710Z,94.88
2022-09-11T06:11:09.977Z,96.65
2022-09-11T06:13:41.671Z,96.58
2022-09-11T06:16:18.643Z,95.38
2022-09-11T06:18:49.428Z,95.47
2022-09-11T06:21:24.332Z,95.34
2022-09-11T06:23:52.917Z,94.31
2022-09-11T06:26:25.203Z,95.10
2022-09-11T06:28:52.908Z,94.60
2022-09-11T06:31:22.695Z,93.56
2022-09-11T06:33:50.138Z,93.01
2022-09-11T06:36:23.150Z,93.17
2022-09-11T06:38:57.689Z,93.23
2022-09-11T06:41:25.812Z,93.63
2022-09-11T06:43:53.035Z,93.97
2022-09-11T06:46:22.626Z,94.23
2022-09-11T06:48:50.798Z,94.14
2022-09-11T06:51:20.076Z,93.87
2022-09-11T06:53:47.501Z,93.98
2022-09-11T06:56:18.730Z,94.45
2022-09-11T06:58:46.088Z,94.48
2022-09-11T07:01:17.506Z,95.43
2022-09-11T07:03:54.852Z,95.01
2022-09-11T07:06:24.584Z,93.82
2022-09-11T07:09:00.816Z,94.04
2022-09-11T07:11:29.602Z,93.91
2022-09-11T07:13:56.208Z,94.39
2022-09-11T07:16:22.836Z,95.34
2022-09-11T07:18:49.550Z,95.69
2022-09-11T07:21:21.894Z,96.20
2022-09-11T07:23:49.660Z,96.30
2022-09-11T07:26:17.494Z,95.41
2022-09-11T07:28:44.494Z,94.23
2022-09-11T07:31:17.446Z,93.09
2022-09-11T07:33:48.810Z,93.89
2022-09-11T07:36:18.711Z,93.78
2022-09-11T07:38:48.134Z,93.74
2022-09-11T07:41:17.661Z,93.32
2022-09-11T07:43:48.345Z,93.90
2022-09-11T07:46:15.361Z,93.87
2022-09-11T07:48:43.101Z,94.09
2022-09-11T07:51:12.521Z,93.34
2022-09-11T07:53:41.501Z,94.04
2022-09-11T07:56:11.434Z,93.54
2022-09-11T07:58:42.001Z,93.22
2022-09-11T08:01:14.301Z,92.41
2022-09-11T08:03:45.629Z,92.59
2022-09-11T08:06:21.901Z,92.19
2022-09-11T08:08:53.949Z,90.55
2022-09-11T08:11:21.576Z,90.28
2022-09-11T08:13:53.436Z,90.40
2022-09-11T08:16:22.078Z,90.46
2022-09-11T08:18:48.756Z,90.94
2022-09-11T08:21:15.988Z,89.60
2022-09-11T08:23:44.018Z,89.62
2022-09-11T08:26:32.206Z,88.41
2022-09-11T08:29:00.070Z,90.19
2022-09-11T08:31:27.867Z,91.33
2022-09-11T08:33:55.451Z,94.26
2022-09-11T08:36:23.339Z,95.12
2022-09-11T08:38:49.994Z,95.80
2022-09-11T08:41:56.507Z,98.09
2022-09-11T08:44:37.249Z,98.43
2022-09-11T08:47:13.917Z,99.35
2022-09-11T08:49:50.047Z,98.27
2022-09-11T08:52:16.927Z,98.16
2022-09-11T08:54:45.994Z,97.57
2022-09-11T08:57:55.762Z,97.23
2022-09-11T09:00:28.151Z,98.49
2022-09-11T09:03:30.499Z,98.03
2022-09-11T09:06:40.601Z,98.65
2022-09-11T09:35:26.856Z,100.00
2022-09-11T09:37:54.262Z,100.00
2022-09-11T09:40:24.461Z,100.00
2022-09-11T09:43:02.281Z,100.00
2022-09-11T09:45:40.163Z,100.00
2022-09-11T09:48:10.550Z,100.00
2022-09-11T09:50:42.850Z,100.00
2022-09-11T09:53:46.421Z,100.00
2022-09-11T09:56:18.167Z,100.00
2022-09-11T09:59:01.528Z,100.00
2022-09-11T10:01:51.244Z,100.00
2022-09-11T10:04:24.071Z,100.00
2022-09-11T10:07:14.193Z,100.00
2022-09-11T10:09:51.560Z,100.00
2022-09-11T10:12:25.026Z,100.00
2022-09-11T10:15:02.477Z,100.00
2022-09-11T10:17:32.354Z,100.00
2022-09-11T10:20:22.998Z,99.63
2022-09-11T10:22:51.104Z,99.10
2022-09-11T10:25:29.969Z,98.22
2022-09-11T10:28:14.308Z,97.40
2022-09-11T10:31:04.418Z,98.01
2022-09-11T10:33:35.608Z,96.95
2022-09-11T10:36:06.006Z,99.01
2022-09-11T10:38:45.973Z,99.19
2022-09-11T10:41:19.601Z,100.00
2022-09-11T10:44:16.064Z,98.66
2022-09-11T10:46:45.205Z,99.87
2022-09-11T10:49:22.788Z,100.00
2022-09-11T10:52:02.106Z,100.00
2022-09-11T10:55:03.878Z,100.00
2022-09-11T10:57:56.026Z,100.00
2022-09-11T11:00:29.035Z,100.00
2022-09-11T11:03:20.114Z,100.00
2022-09-11T11:06:45.424Z,100.00
2022-09-11T11:09:54.936Z,100.00
2022-09-11T11:12:50.353Z,100.00
2022-09-11T11:15:31.020Z,100.00
2022-09-11T11:18:22.562Z,100.00
2022-09-11T11:21:51.000Z,100.00
2022-09-11T11:24:27.672Z,100.00
2022-09-11T11:27:10.132Z,100.00
2022-09-11T11:30:30.519Z,100.00
2022-09-11T11:33:17.405Z,100.00
2022-09-11T11:36:15.386Z,100.00
2022-09-11T11:38:51.103Z,100.00
2022-09-11T11:41:44.589Z,100.00
2022-09-11T11:44:17.072Z,100.00
2022-09-11T11:46:47.829Z,100.00
2022-09-11T11:49:46.290Z,100.00
2022-09-11T11:52:31.310Z,100.00
2022-09-11T11:55:40.319Z,99.56
2022-09-11T11:58:34.568Z,99.76
2022-09-11T12:01:06.890Z,100.00
2022-09-11T12:03:47.878Z,99.25
2022-09-11T12:06:15.375Z,98.79
2022-09-11T12:08:46.657Z,98.89
2022-09-11T12:11:18.333Z,99.71
2022-09-11T12:13:47.921Z,97.32
2022-09-11T12:16:35.642Z,97.14
2022-09-11T12:19:22.246Z,96.39
2022-09-11T12:21:54.754Z,94.23
2022-09-11T12:24:42.267Z,95.48
2022-09-11T12:27:50.857Z,95.78
2022-09-11T12:30:28.634Z,96.11
2022-09-11T12:33:01.205Z,96.22
2022-09-11T12:35:46.633Z,94.74
2022-09-11T12:38:35.495Z,95.28
2022-09-11T12:41:26.983Z,94.79
2022-09-11T12:43:54.660Z,94.65
2022-09-11T12:47:04.274Z,95.25
2022-09-11T12:49:30.984Z,91.30
2022-09-11T12:52:01.289Z,90.87
2022-09-11T12:54:42.586Z,89.48
2022-09-11T12:57:19.276Z,89.82
2022-09-11T12:59:53.301Z,90.39
2022-09-11T13:02:40.025Z,89.89
2022-09-11T13:05:17.774Z,88.99
2022-09-11T13:07:48.356Z,90.50
2022-09-11T13:10:39.130Z,90.59
2022-09-11T13:13:26.807Z,90.44
2022-09-11T13:15:57.324Z,88.95
2022-09-11T13:18:32.342Z,91.23
2022-09-11T13:21:01.624Z,89.84
2022-09-11T13:23:29.202Z,91.88
2022-09-11T13:25:58.090Z,91.85
2022-09-11T13:28:27.444Z,90.98
2022-09-11T13:31:00.605Z,90.81
2022-09-11T13:33:29.373Z,91.66
2022-09-11T13:36:00.728Z,90.82
2022-09-11T13:38:32.303Z,93.21
2022-09-11T13:41:02.874Z,97.56
2022-09-11T13:43:35.772Z,97.68
2022-09-11T13:46:21.236Z,98.24
2022-09-11T13:49:13.319Z,99.05
2022-09-11T13:51:44.619Z,97.54
2022-09-11T13:54:26.223Z,99.85
2022-09-11T13:57:13.001Z,100.00
2022-09-11T13:59:50.046Z,100.00
2022-09-11T14:02:54.591Z,100.00
2022-09-11T14:05:27.178Z,100.00
2022-09-11T14:08:10.073Z,100.00
2022-09-11T14:10:52.485Z,100.00
2022-09-11T14:13:44.860Z,100.00
2022-09-11T14:16:21.942Z,100.00
2022-09-11T14:19:11.235Z,100.00
2022-09-11T14:21:46.637Z,100.00
2022-09-11T14:25:05.666Z,100.00
2022-09-11T14:27:37.609Z,100.00
2022-09-11T14:30:36.158Z,100.00
2022-09-11T14:33:13.201Z,100.00
2022-09-11T14:35:39.937Z,100.00
2022-09-11T14:38:06.639Z,100.00
2022-09-11T14:40:33.255Z,100.00
2022-09-11T14:42:59.838Z,99.59
2022-09-11T14:45:26.487Z,99.57
2022-09-11T14:47:53.520Z,100.00
2022-09-11T14:50:20.279Z,96.79
2022-09-11T14:52:46.857Z,96.56
2022-09-11T14:55:18.282Z,97.65
2022-09-11T14:57:48.235Z,96.90
2022-09-11T15:00:18.654Z,96.67
2022-09-11T15:02:46.357Z,97.08
2022-09-11T15:05:19.262Z,98.98
2022-09-11T15:07:45.892Z,100.00
2022-09-11T15:10:13.704Z,100.00
2022-09-11T15:12:40.627Z,100.00
2022-09-11T15:15:07.866Z,100.00
2022-09-11T15:17:36.340Z,100.00
2022-09-11T15:20:09.164Z,99.94
2022-09-11T15:22:37.320Z,99.89
2022-09-11T15:25:04.394Z,99.38
2022-09-11T15:27:31.340Z,100.00
2022-09-11T15:29:58.018Z,100.00
2022-09-11T15:32:24.638Z,100.00
2022-09-11T15:34:54.732Z,100.00
2022-09-11T15:37:21.581Z,99.80
2022-09-11T15:39:50.619Z,99.26
2022-09-11T15:42:17.959Z,98.71
2022-09-11T15:44:45.391Z,97.72
2022-09-11T15:47:12.434Z,98.06
2022-09-11T15:49:41.145Z,98.84
2022-09-11T15:52:07.953Z,98.38
2022-09-11T15:54:34.550Z,99.00
2022-09-11T15:57:01.181Z,99.50
2022-09-11T15:59:28.499Z,99.89
2022-09-11T16:01:55.114Z,100.00
2022-09-11T16:04:26.530Z,100.00
2022-09-11T16:06:54.849Z,100.00
2022-09-11T16:09:26.885Z,100.00
2022-09-11T16:11:54.754Z,99.90
2022-09-11T16:14:25.287Z,99.89
2022-09-11T16:16:52.320Z,100.00
2022-09-11T16:19:22.746Z,99.42
2022-09-11T16:21:49.743Z,98.48
2022-09-11T16:24:16.704Z,98.75
2022-09-11T16:26:44.565Z,97.49
2022-09-11T16:29:14.601Z,97.23
2022-09-11T16:31:41.987Z,98.09
2022-09-11T16:34:09.021Z,98.48
2022-09-11T16:36:38.808Z,99.46
2022-09-11T16:39:07.952Z,99.75
2022-09-11T16:41:37.045Z,100.00
2022-09-11T16:44:05.185Z,100.00
2022-09-11T16:46:33.344Z,100.00
2022-09-11T16:49:02.027Z,100.00
2022-09-11T16:51:29.640Z,100.00
2022-09-11T16:53:56.232Z,100.00
2022-09-11T16:56:24.377Z,100.00
2022-09-11T16:58:51.540Z,100.00
2022-09-11T17:01:23.590Z,100.00
2022-09-11T17:03:53.038Z,99.08
2022-09-11T17:06:20.357Z,100.00
2022-09-11T17:08:50.510Z,100.00
2022-09-11T17:11:20.141Z,100.00
2022-09-11T17:13:47.468Z,100.00
2022-09-11T17:16:21.175Z,100.00
2022-09-11T17:18:49.149Z,100.00
2022-09-11T17:21:16.452Z,100.00
2022-09-11T17:23:43.712Z,100.00
2022-09-11T17:26:13.561Z,100.00
2022-09-11T17:28:41.869Z,100.00
2022-09-11T17:31:10.425Z,100.00
2022-09-11T17:33:40.202Z,100.00
2022-09-11T17:36:08.879Z,100.00
2022-09-11T17:38:36.579Z,100.00
2022-09-11T17:41:05.872Z,100.00
2022-09-11T17:43:33.263Z,100.00
2022-09-11T17:46:12.180Z,100.00
2022-09-11T17:48:39.743Z,100.00
2022-09-11T17:51:26.329Z,100.00
2022-09-11T17:53:56.282Z,100.00
2022-09-11T17:56:25.433Z,100.00
2022-09-11T17:58:55.811Z,100.00
2022-09-11T18:01:24.405Z,100.00
2022-09-11T18:03:53.265Z,100.00
2022-09-11T18:06:38.586Z,100.00
2022-09-11T18:09:15.094Z,100.00
2022-09-11T18:11:43.154Z,100.00
2022-09-11T18:14:10.573Z,100.00
2022-09-11T18:16:38.053Z,100.00
2022-09-11T18:19:05.560Z,100.00
2022-09-11T18:21:33.293Z,100.00
2022-09-11T18:24:03.559Z,100.00
2022-09-11T18:26:33.049Z,100.00
2022-09-11T18:29:02.529Z,100.00
2022-09-11T18:31:33.383Z,100.00
2022-09-11T18:34:01.235Z,100.00
2022-09-11T18:36:31.404Z,100.00
2022-09-11T18:39:03.498Z,100.00
2022-09-11T18:41:32.809Z,100.00
2022-09-11T18:44:00.757Z,100.00
2022-09-11T18:46:27.670Z,100.00
2022-09-11T18:48:55.954Z,100.00
2022-09-11T18:51:22.949Z,100.00
2022-09-11T18:53:54.031Z,100.00
2022-09-11T18:56:22.385Z,100.00
2022-09-11T18:58:50.515Z,100.00
2022-09-11T19:01:19.324Z,100.00
2022-09-11T19:03:46.162Z,100.00
2022-09-11T19:06:17.518Z,100.00
2022-09-11T19:08:46.783Z,100.00
2022-09-11T19:11:19.480Z,100.00
2022-09-11T19:13:46.702Z,100.00
2022-09-11T19:16:14.658Z,100.00
2022-09-11T19:18:41.476Z,100.00
2022-09-11T19:21:11.630Z,100.00
2022-09-11T19:23:40.963Z,100.00
2022-09-11T19:26:12.101Z,100.00
2022-09-11T19:28:41.040Z,100.00
2022-09-11T19:31:09.380Z,100.00
2022-09-11T19:33:37.474Z,100.00
2022-09-11T19:36:10.798Z,100.00
2022-09-11T19:38:42.730Z,100.00
2022-09-11T19:41:12.733Z,100.00
2022-09-11T19:43:41.022Z,100.00
2022-09-11T19:46:10.660Z,100.00
2022-09-11T19:48:40.635Z,100.00
2022-09-11T19:51:13.275Z,100.00
2022-09-11T19:53:40.356Z,100.00
2022-09-11T19:56:07.633Z,100.00
2022-09-11T19:58:34.923Z,100.00
2022-09-11T20:01:13.758Z,100.00
2022-09-11T20:03:42.562Z,100.00
2022-09-11T20:06:11.276Z,100.00
2022-09-11T20:08:38.618Z,100.00
2022-09-11T20:11:07.368Z,100.00
2022-09-11T20:13:35.431Z,100.00
2022-09-11T20:16:06.926Z,100.00
2022-09-11T20:18:33.771Z,100.00
2022-09-11T20:21:05.982Z,100.00
2022-09-11T20:23:33.093Z,100.00
2022-09-11T20:26:32.600Z,100.00
2022-09-11T20:29:06.933Z,100.00
2022-09-11T20:31:42.413Z,100.00
2022-09-11T20:34:13.037Z,100.00
2022-09-11T20:36:39.657Z,100.00
2022-09-11T20:39:06.258Z,100.00
2022-09-11T20:41:33.336Z,100.00
2022-09-11T20:44:04.049Z,100.00
2022-09-11T20:46:30.750Z,100.00
2022-09-11T20:48:57.613Z,100.00
2022-09-11T20:51:24.417Z,100.00
2022-09-11T20:53:51.312Z,100.00
2022-09-11T20:56:23.883Z,99.47
2022-09-11T20:58:51.172Z,98.60
2022-09-11T21:01:21.384Z,99.20
2022-09-11T21:03:56.561Z,99.65
2022-09-11T21:06:26.405Z,99.64
2022-09-11T21:08:55.615Z,99.65
2022-09-11T21:11:23.075Z,99.20
2022-09-11T21:13:49.670Z,99.80
2022-09-11T21:16:16.878Z,98.96
2022-09-11T21:18:49.730Z,99.09
2022-09-11T21:21:17.406Z,99.57
2022-09-11T21:23:44.580Z,99.56
2022-09-11T21:26:13.529Z,99.58
2022-09-11T21:28:40.594Z,99.02
2022-09-11T21:31:07.311Z,99.13
2022-09-11T21:33:35.621Z,99.35
2022-09-11T21:36:02.882Z,99.09
2022-09-11T21:38:29.982Z,98.51
2022-09-11T21:40:58.509Z,98.82
2022-09-11T21:43:26.049Z,98.87
2022-09-11T21:45:53.002Z,98.24
2022-09-11T21:48:20.220Z,97.97
2022-09-11T21:50:46.857Z,98.53
2022-09-11T21:53:13.517Z,98.91
2022-09-11T21:55:42.649Z,98.80
2022-09-11T21:58:15.093Z,98.36
2022-09-11T22:00:43.220Z,98.50
2022-09-11T22:03:12.447Z,98.42
2022-09-11T22:05:44.095Z,98.17
2022-09-11T22:08:12.177Z,98.85
2022-09-11T22:10:47.788Z,98.28
2022-09-11T22:13:14.898Z,97.94
2022-09-11T22:15:42.645Z,97.82
2022-09-11T22:18:09.578Z,97.79
2022-09-11T22:20:40.638Z,98.22
2022-09-11T22:23:08.310Z,97.87
2022-09-11T22:25:36.878Z,97.57
2022-09-11T22:28:04.787Z,97.35
2022-09-11T22:30:31.741Z,97.22
2022-09-11T22:32:59.903Z,97.72
2022-09-11T22:35:27.503Z,98.30
2022-09-11T22:37:54.104Z,98.09
2022-09-11T22:40:20.651Z,97.97
2022-09-11T22:42:47.573Z,99.03
2022-09-11T22:45:14.178Z,99.12
2022-09-11T22:47:40.979Z,99.78
2022-09-11T22:50:08.221Z,99.68
2022-09-11T22:52:35.612Z,99.76
2022-09-11T22:55:02.486Z,99.49
2022-09-11T22:57:29.386Z,99.55
2022-09-11T22:59:56.206Z,100.00
2022-09-11T23:02:22.920Z,99.34
2022-09-11T23:05:08.276Z,99.77
2022-09-11T23:07:34.888Z,99.63
2022-09-11T23:10:01.844Z,99.46
2022-09-11T23:12:28.470Z,99.91
2022-09-11T23:14:55.188Z,99.65
2022-09-11T23:17:21.754Z,99.47
2022-09-11T23:19:48.735Z,99.86
2022-09-11T23:22:15.590Z,99.38
2022-09-11T23:24:42.164Z,98.92
2022-09-11T23:27:08.729Z,99.25
2022-09-11T23:29:35.397Z,98.98
2022-09-11T23:32:02.347Z,99.05
2022-09-11T23:34:29.263Z,99.20
2022-09-11T23:36:55.810Z,99.58
2022-09-11T23:39:22.351Z,99.38
2022-09-11T23:41:49.179Z,99.12
2022-09-11T23:44:15.836Z,98.72
2022-09-11T23:46:42.633Z,99.08
2022-09-11T23:49:11.338Z,99.06
2022-09-11T23:51:38.033Z,98.92
2022-09-11T23:54:05.564Z,98.67
2022-09-11T23:56:32.129Z,99.03
2022-09-11T23:58:58.967Z,98.79
